createdAt,value
2019-05-23T00:02:52.876Z,101454.14
2019-05-23T00:05:44.754Z,101457.16
2019-05-23T00:08:16.103Z,101464.66
2019-05-23T00:10:53.823Z,101451.94
2019-05-23T00:13:53.664Z,101457.44
2019-05-23T00:16:24.618Z,101449.40
2019-05-23T00:18:54.124Z,101453.52
2019-05-23T00:21:24.004Z,101445.52
2019-05-23T00:23:55.040Z,101446.08
2019-05-23T00:26:26.232Z,101446.61
2019-05-23T00:29:09.644Z,101441.05
2019-05-23T00:31:32.600Z,101448.23
2019-05-23T00:34:02.055Z,101445.76
2019-05-23T00:36:32.348Z,101440.79
2019-05-23T00:39:01.956Z,101443.52
2019-05-23T00:41:32.911Z,101446.84
2019-05-23T00:44:02.257Z,101445.76
2019-05-23T00:46:31.953Z,101457.63
2019-05-23T00:49:03.132Z,101448.52
2019-05-23T00:51:34.213Z,101455.40
2019-05-23T00:54:04.365Z,101459.55
2019-05-23T00:56:35.924Z,101457.92
2019-05-23T00:59:06.415Z,101461.22
2019-05-23T01:01:37.907Z,101467.30
2019-05-23T01:04:08.142Z,101460.42
2019-05-23T01:06:38.531Z,101455.72
2019-05-23T01:09:09.323Z,101458.19
2019-05-23T01:11:39.049Z,101460.98
2019-05-23T01:14:09.452Z,101457.13
2019-05-23T01:16:39.238Z,101453.02
2019-05-23T01:19:09.432Z,101457.16
2019-05-23T01:21:59.508Z,101458.27
2019-05-23T01:24:32.600Z,101460.22
2019-05-23T01:27:03.108Z,101459.39
2019-05-23T01:29:39.566Z,101461.04
2019-05-23T01:32:21.017Z,101463.27
2019-05-23T01:34:51.086Z,101462.72
2019-05-23T01:37:21.448Z,101462.98
2019-05-23T01:39:51.400Z,101464.92
2019-05-23T01:42:22.360Z,101461.33
2019-05-23T01:44:52.276Z,101461.88
2019-05-23T01:47:23.947Z,101465.75
2019-05-23T01:49:54.866Z,101463.27
2019-05-23T01:52:24.533Z,101465.49
2019-05-23T01:54:54.164Z,101466.88
2019-05-23T01:57:25.140Z,101468.54
2019-05-23T02:00:08.752Z,101467.72
2019-05-23T02:02:27.580Z,101471.86
2019-05-23T02:04:57.346Z,101475.17
2019-05-23T02:07:29.392Z,101469.92
2019-05-23T02:09:58.979Z,101465.53
2019-05-23T02:12:28.251Z,101468.84
2019-05-23T02:14:57.608Z,101471.05
2019-05-23T02:17:27.324Z,101474.36
2019-05-23T02:19:56.759Z,101464.42
2019-05-23T02:22:26.799Z,101463.32
2019-05-23T02:24:56.802Z,101465.53
2019-05-23T02:27:26.815Z,101463.04
2019-05-23T02:29:56.794Z,101468.58
2019-05-23T02:32:26.319Z,101471.05
2019-05-23T02:34:55.806Z,101460.84
2019-05-23T02:37:43.431Z,101469.67
2019-05-23T02:40:23.228Z,101473.82
2019-05-23T02:42:57.778Z,101468.31
2019-05-23T02:45:37.163Z,101474.64
2019-05-23T02:48:11.758Z,101470.80
2019-05-23T02:50:46.661Z,101470.23
2019-05-23T02:53:18.189Z,101481.82
2019-05-23T02:55:50.079Z,101471.06
2019-05-23T02:58:25.979Z,101483.48
2019-05-23T03:01:41.787Z,101483.75
2019-05-23T03:04:15.607Z,101481.56
2019-05-23T03:06:46.024Z,101480.16
2019-05-23T03:09:20.174Z,101470.51
2019-05-23T03:11:50.098Z,101477.39
2019-05-23T03:14:19.887Z,101481.25
2019-05-23T03:16:52.637Z,101481.81
2019-05-23T03:19:45.222Z,101479.89
2019-05-23T03:22:34.211Z,101484.58
2019-05-23T03:25:05.828Z,101482.91
2019-05-23T03:27:40.981Z,101487.05
2019-05-23T03:30:14.439Z,101501.41
2019-05-23T03:32:46.139Z,101493.38
2019-05-23T03:35:35.005Z,101490.34
2019-05-23T03:38:06.406Z,101491.41
2019-05-23T03:40:36.384Z,101500.80
2019-05-23T03:43:06.398Z,101496.33
2019-05-23T03:45:40.378Z,101488.34
2019-05-23T03:48:11.621Z,101493.35
2019-05-23T03:50:42.012Z,101500.52
2019-05-23T03:53:12.229Z,101497.65
2019-05-23T03:55:42.663Z,101507.23
2019-05-23T03:58:13.488Z,101501.63
2019-05-23T04:00:49.735Z,101507.52
2019-05-23T04:03:19.236Z,101509.00
2019-05-23T04:05:49.244Z,101507.62
2019-05-23T04:08:19.450Z,101514.81
2019-05-23T04:10:51.807Z,101521.98
2019-05-23T04:13:20.453Z,101518.64
2019-05-23T04:15:50.524Z,101518.48
2019-05-23T04:18:19.916Z,101519.48
2019-05-23T04:20:49.483Z,101520.86
2019-05-23T04:23:19.714Z,101528.47
2019-05-23T04:25:49.540Z,101525.39
2019-05-23T04:28:19.431Z,101525.74
2019-05-23T04:30:49.259Z,101525.83
2019-05-23T04:33:18.563Z,101530.36
2019-05-23T04:35:48.388Z,101527.64
2019-05-23T04:38:18.194Z,101531.29
2019-05-23T04:40:47.732Z,101530.20
2019-05-23T04:43:17.238Z,101532.14
2019-05-23T04:45:48.030Z,101533.46
2019-05-23T04:48:17.599Z,101535.26
2019-05-23T04:50:47.894Z,101540.81
2019-05-23T04:53:17.622Z,101544.31
2019-05-23T04:55:47.455Z,101539.05
2019-05-23T04:58:17.139Z,101543.36
2019-05-23T05:00:46.695Z,101549.80
2019-05-23T05:03:18.160Z,101554.22
2019-05-23T05:05:48.151Z,101552.39
2019-05-23T05:08:17.713Z,101553.58
2019-05-23T05:10:47.394Z,101547.80
2019-05-23T05:13:17.168Z,101563.20
2019-05-23T05:15:46.617Z,101562.95
2019-05-23T05:18:16.401Z,101563.66
2019-05-23T05:20:46.042Z,101566.91
2019-05-23T05:23:15.764Z,101569.02
2019-05-23T05:25:45.091Z,101563.01
2019-05-23T05:28:14.546Z,101559.86
2019-05-23T05:30:44.436Z,101571.14
2019-05-23T05:33:13.677Z,101570.16
2019-05-23T05:35:43.723Z,101578.83
2019-05-23T05:38:13.210Z,101573.13
2019-05-23T05:40:42.656Z,101588.34
2019-05-23T05:43:12.444Z,101587.41
2019-05-23T05:45:42.473Z,101591.68
2019-05-23T05:48:11.858Z,101589.73
2019-05-23T05:50:41.739Z,101597.16
2019-05-23T05:53:12.566Z,101590.80
2019-05-23T05:55:42.109Z,101597.37
2019-05-23T05:58:11.440Z,101601.77
2019-05-23T06:00:54.377Z,101599.32
2019-05-23T06:03:23.656Z,101601.64
2019-05-23T06:06:09.323Z,101602.08
2019-05-23T06:08:39.878Z,101598.09
2019-05-23T06:11:09.564Z,101604.56
2019-05-23T06:13:39.187Z,101609.16
2019-05-23T06:16:08.603Z,101609.95
2019-05-23T06:18:38.048Z,101609.24
2019-05-23T06:21:08.256Z,101601.84
2019-05-23T06:23:37.999Z,101609.01
2019-05-23T06:26:07.333Z,101607.37
2019-05-23T06:28:38.039Z,101607.37
2019-05-23T06:31:08.366Z,101610.94
2019-05-23T06:33:38.113Z,101610.94
2019-05-23T06:36:07.737Z,101618.31
2019-05-23T06:38:37.096Z,101620.84
2019-05-23T06:41:07.949Z,101616.82
2019-05-23T06:43:39.269Z,101616.95
2019-05-23T06:46:08.771Z,101614.73
2019-05-23T06:48:38.034Z,101609.56
2019-05-23T06:51:07.759Z,101609.56
2019-05-23T06:53:37.129Z,101606.60
2019-05-23T06:56:08.294Z,101604.25
2019-05-23T06:58:38.167Z,101607.11
2019-05-23T07:01:07.525Z,101611.75
2019-05-23T07:03:42.654Z,101609.44
2019-05-23T07:06:09.323Z,101615.07
2019-05-23T07:08:38.812Z,101614.70
2019-05-23T07:11:08.221Z,101619.59
2019-05-23T07:13:38.292Z,101619.28
2019-05-23T07:16:07.578Z,101632.58
2019-05-23T07:18:36.821Z,101633.55
2019-05-23T07:21:06.953Z,101641.97
2019-05-23T07:23:36.817Z,101635.48
2019-05-23T07:26:06.147Z,101627.20
2019-05-23T07:28:36.105Z,101615.53
2019-05-23T07:31:06.330Z,101625.19
2019-05-23T07:33:35.780Z,101620.13
2019-05-23T07:36:05.556Z,101618.67
2019-05-23T07:38:34.859Z,101620.73
2019-05-23T07:41:04.393Z,101624.59
2019-05-23T07:43:34.053Z,101620.91
2019-05-23T07:46:03.742Z,101628.20
2019-05-23T07:48:33.346Z,101631.61
2019-05-23T07:51:03.140Z,101629.67
2019-05-23T07:53:50.387Z,101623.18
2019-05-23T07:56:22.974Z,101617.84
2019-05-23T07:58:52.250Z,101626.34
2019-05-23T08:01:24.309Z,101629.67
2019-05-23T08:03:54.400Z,101625.77
2019-05-23T08:06:24.120Z,101631.20
2019-05-23T08:08:53.677Z,101628.71
2019-05-23T08:11:23.383Z,101637.41
2019-05-23T08:13:53.496Z,101634.09
2019-05-23T08:16:23.712Z,101632.81
2019-05-23T08:18:53.410Z,101631.52
2019-05-23T08:21:22.687Z,101631.23
2019-05-23T08:23:52.431Z,101625.26
2019-05-23T08:26:22.810Z,101625.02
2019-05-23T08:29:21.727Z,101625.19
2019-05-23T08:31:24.290Z,101626.17
2019-05-23T08:33:53.995Z,101625.23
2019-05-23T08:36:24.053Z,101622.94
2019-05-23T08:38:54.182Z,101635.02
2019-05-23T08:41:24.473Z,101630.88
2019-05-23T08:43:54.218Z,101633.98
2019-05-23T08:46:24.363Z,101630.03
2019-05-23T08:48:54.756Z,101636.13
2019-05-23T08:51:24.192Z,101640.55
2019-05-23T08:53:56.305Z,101641.72
2019-05-23T08:56:26.052Z,101649.16
2019-05-23T08:58:55.404Z,101643.87
2019-05-23T09:01:25.225Z,101640.84
2019-05-23T09:03:54.975Z,101654.75
2019-05-23T09:06:24.357Z,101659.09
2019-05-23T09:08:55.081Z,101655.92
2019-05-23T09:11:24.799Z,101662.95
2019-05-23T09:13:54.310Z,101665.39
2019-05-23T09:16:23.753Z,101660.25
2019-05-23T09:18:53.573Z,101669.44
2019-05-23T09:21:22.918Z,101669.45
2019-05-23T09:23:52.188Z,101668.59
2019-05-23T09:26:21.476Z,101676.88
2019-05-23T09:28:50.984Z,101674.77
2019-05-23T09:31:22.204Z,101678.83
2019-05-23T09:33:51.778Z,101678.34
2019-05-23T09:36:21.139Z,101670.23
2019-05-23T09:38:50.871Z,101667.02
2019-05-23T09:41:20.262Z,101669.42
2019-05-23T09:43:49.580Z,101662.33
2019-05-23T09:46:19.240Z,101667.59
2019-05-23T09:48:48.784Z,101668.56
2019-05-23T09:51:18.147Z,101665.14
2019-05-23T09:53:47.961Z,101676.20
2019-05-23T09:56:17.379Z,101667.16
2019-05-23T09:58:46.613Z,101672.30
2019-05-23T10:01:18.299Z,101670.09
2019-05-23T10:03:48.307Z,101675.70
2019-05-23T10:06:17.632Z,101671.77
2019-05-23T10:08:47.123Z,101670.31
2019-05-23T10:11:16.554Z,101671.13
2019-05-23T10:13:45.847Z,101663.79
2019-05-23T10:16:15.423Z,101665.31
2019-05-23T10:18:45.261Z,101661.25
2019-05-23T10:21:14.708Z,101663.86
2019-05-23T10:23:44.121Z,101665.52
2019-05-23T10:26:13.864Z,101656.31
2019-05-23T10:28:43.221Z,101663.02
2019-05-23T10:31:14.100Z,101663.29
2019-05-23T10:33:43.424Z,101661.89
2019-05-23T10:36:12.738Z,101656.66
2019-05-23T10:38:42.574Z,101664.47
2019-05-23T10:41:12.041Z,101668.55
2019-05-23T10:43:41.393Z,101666.39
2019-05-23T10:46:10.933Z,101674.59
2019-05-23T10:48:41.021Z,101671.23
2019-05-23T10:51:10.490Z,101673.64
2019-05-23T10:53:40.372Z,101662.49
2019-05-23T10:56:10.052Z,101666.92
2019-05-23T10:58:39.886Z,101664.89
2019-05-23T11:01:09.313Z,101657.93
2019-05-23T11:03:38.900Z,101657.53
2019-05-23T11:06:16.156Z,101658.16
2019-05-23T11:08:39.745Z,101659.31
2019-05-23T11:11:14.025Z,101655.89
2019-05-23T11:13:41.124Z,101654.56
2019-05-23T11:16:10.956Z,101654.70
2019-05-23T11:18:40.650Z,101645.88
2019-05-23T11:21:10.374Z,101642.50
2019-05-23T11:23:44.332Z,101643.83
2019-05-23T11:26:13.808Z,101643.64
2019-05-23T11:28:43.127Z,101633.92
2019-05-23T11:31:14.385Z,101634.46
2019-05-23T11:33:43.810Z,101632.92
2019-05-23T11:36:13.648Z,101629.73
2019-05-23T11:38:43.444Z,101636.88
2019-05-23T11:41:13.039Z,101637.24
2019-05-23T11:43:42.994Z,101632.39
2019-05-23T11:46:27.991Z,101638.65
2019-05-23T11:48:57.560Z,101643.55
2019-05-23T11:51:27.355Z,101634.44
2019-05-23T11:54:07.550Z,101618.88
2019-05-23T11:56:28.578Z,101623.63
2019-05-23T11:59:01.136Z,101624.85
2019-05-23T12:01:37.553Z,101625.30
2019-05-23T12:04:18.313Z,101626.81
2019-05-23T12:07:08.943Z,101626.81
2019-05-23T12:09:38.350Z,101617.00
2019-05-23T12:12:07.691Z,101610.34
2019-05-23T12:14:37.973Z,101616.20
2019-05-23T12:17:07.560Z,101619.83
2019-05-23T12:19:36.924Z,101619.89
2019-05-23T12:22:06.374Z,101610.05
2019-05-23T12:24:36.111Z,101613.80
2019-05-23T12:27:05.889Z,101616.36
2019-05-23T12:29:35.553Z,101603.27
2019-05-23T12:32:06.688Z,101616.87
2019-05-23T12:34:36.159Z,101614.14
2019-05-23T12:37:21.294Z,101613.06
2019-05-23T12:39:37.201Z,101612.45
2019-05-23T12:42:06.575Z,101603.04
2019-05-23T12:44:35.935Z,101603.60
2019-05-23T12:47:05.877Z,101606.55
2019-05-23T12:49:46.575Z,101607.06
2019-05-23T12:52:16.245Z,101603.02
2019-05-23T12:54:46.163Z,101608.70
2019-05-23T12:57:16.021Z,101604.44
2019-05-23T12:59:46.016Z,101600.95
2019-05-23T13:02:20.201Z,101599.84
2019-05-23T13:04:50.244Z,101603.27
2019-05-23T13:07:35.082Z,101589.83
2019-05-23T13:09:51.275Z,101589.66
2019-05-23T13:12:20.929Z,101588.12
2019-05-23T13:14:53.540Z,101593.27
2019-05-23T13:17:21.425Z,101587.13
2019-05-23T13:19:50.714Z,101590.09
2019-05-23T13:22:20.460Z,101584.86
2019-05-23T13:24:53.035Z,101584.77
2019-05-23T13:27:21.232Z,101590.02
2019-05-23T13:29:50.632Z,101591.95
2019-05-23T13:32:20.307Z,101581.89
2019-05-23T13:34:49.599Z,101590.52
2019-05-23T13:37:19.088Z,101587.76
2019-05-23T13:39:49.043Z,101589.42
2019-05-23T13:42:18.474Z,101591.34
2019-05-23T13:44:48.915Z,101587.04
2019-05-23T13:47:18.403Z,101586.86
2019-05-23T13:49:47.781Z,101585.61
2019-05-23T13:52:17.126Z,101582.77
2019-05-23T13:54:46.704Z,101567.20
2019-05-23T13:57:16.472Z,101581.72
2019-05-23T13:59:45.809Z,101580.45
2019-05-23T14:02:20.549Z,101580.13
2019-05-23T14:04:50.221Z,101579.16
2019-05-23T14:07:19.997Z,101583.24
2019-05-23T14:09:49.271Z,101584.60
2019-05-23T14:12:21.401Z,101580.91
2019-05-23T14:14:50.134Z,101584.22
2019-05-23T14:17:41.644Z,101587.75
2019-05-23T14:20:11.427Z,101582.81
2019-05-23T14:22:45.333Z,101576.94
2019-05-23T14:25:15.008Z,101579.67
2019-05-23T14:27:57.730Z,101574.61
2019-05-23T14:30:40.158Z,101573.52
2019-05-23T14:33:20.870Z,101577.48
2019-05-23T14:35:51.319Z,101582.77
2019-05-23T14:38:30.221Z,101573.87
2019-05-23T14:40:52.297Z,101567.30
2019-05-23T14:43:24.907Z,101564.11
2019-05-23T14:46:03.437Z,101571.84
2019-05-23T14:48:40.237Z,101563.84
2019-05-23T14:51:30.555Z,101560.70
2019-05-23T14:54:18.800Z,101568.40
2019-05-23T14:56:48.674Z,101566.84
2019-05-23T14:59:18.301Z,101569.80
2019-05-23T15:01:48.448Z,101572.20
2019-05-23T15:04:18.354Z,101565.63
2019-05-23T15:06:47.941Z,101566.56
2019-05-23T15:09:21.074Z,101567.69
2019-05-23T15:11:48.647Z,101562.23
2019-05-23T15:14:17.920Z,101560.25
2019-05-23T15:16:47.424Z,101561.97
2019-05-23T15:19:36.458Z,101548.64
2019-05-23T15:21:47.785Z,101552.23
2019-05-23T15:24:17.248Z,101549.06
2019-05-23T15:26:46.526Z,101552.45
2019-05-23T15:29:15.903Z,101549.27
2019-05-23T15:32:01.100Z,101556.22
2019-05-23T15:34:16.473Z,101551.70
2019-05-23T15:36:45.754Z,101554.80
2019-05-23T15:39:15.616Z,101547.06
2019-05-23T15:41:44.900Z,101548.05
2019-05-23T15:44:25.400Z,101539.14
2019-05-23T15:46:45.569Z,101539.41
2019-05-23T15:49:15.469Z,101533.92
2019-05-23T15:52:06.903Z,101532.01
2019-05-23T15:54:44.680Z,101525.30
2019-05-23T15:57:30.216Z,101529.38
2019-05-23T16:00:06.374Z,101530.53
2019-05-23T16:02:53.420Z,101531.53
2019-05-23T16:05:23.049Z,101533.02
2019-05-23T16:07:52.671Z,101531.63
2019-05-23T16:10:22.611Z,101530.23
2019-05-23T16:12:52.023Z,101528.75
2019-05-23T16:15:21.689Z,101528.66
2019-05-23T16:17:51.358Z,101527.59
2019-05-23T16:20:20.672Z,101531.31
2019-05-23T16:22:50.144Z,101524.20
2019-05-23T16:25:19.923Z,101526.69
2019-05-23T16:27:49.639Z,101525.02
2019-05-23T16:30:19.128Z,101530.62
2019-05-23T16:32:48.769Z,101523.38
2019-05-23T16:35:18.128Z,101522.29
2019-05-23T16:37:47.390Z,101524.42
2019-05-23T16:40:17.279Z,101526.42
2019-05-23T16:42:46.554Z,101529.63
2019-05-23T16:45:15.939Z,101524.31
2019-05-23T16:47:45.534Z,101529.18
2019-05-23T16:50:15.167Z,101526.05
2019-05-23T16:52:44.467Z,101520.47
2019-05-23T16:55:20.971Z,101521.73
2019-05-23T16:57:54.233Z,101525.24
2019-05-23T17:00:43.026Z,101523.72
2019-05-23T17:03:34.416Z,101525.11
2019-05-23T17:06:26.103Z,101529.54
2019-05-23T17:09:04.538Z,101531.80
2019-05-23T17:11:42.844Z,101529.77
2019-05-23T17:14:17.940Z,101543.09
2019-05-23T17:16:53.216Z,101543.09
2019-05-23T17:19:35.391Z,101540.52
2019-05-23T17:22:17.619Z,101546.44
2019-05-23T17:24:58.906Z,101543.59
2019-05-23T17:27:53.605Z,101548.41
2019-05-23T17:30:51.163Z,101550.31
2019-05-23T17:33:22.306Z,101545.86
2019-05-23T17:35:51.836Z,101550.95
2019-05-23T17:38:21.107Z,101547.83
2019-05-23T17:40:51.028Z,101556.91
2019-05-23T17:43:20.313Z,101553.16
2019-05-23T17:45:49.781Z,101552.84
2019-05-23T17:48:19.493Z,101559.74
2019-05-23T17:50:48.800Z,101547.39
2019-05-23T17:53:18.492Z,101550.22
2019-05-23T17:55:48.188Z,101555.80
2019-05-23T17:58:18.167Z,101557.33
2019-05-23T18:00:48.569Z,101551.88
2019-05-23T18:03:18.710Z,101550.48
2019-05-23T18:05:48.100Z,101553.40
2019-05-23T18:08:17.479Z,101551.80
2019-05-23T18:10:47.107Z,101556.64
2019-05-23T18:13:16.879Z,101551.24
2019-05-23T18:15:46.601Z,101559.14
2019-05-23T18:18:16.458Z,101561.67
2019-05-23T18:20:46.075Z,101558.11
2019-05-23T18:23:15.815Z,101557.05
2019-05-23T18:25:45.391Z,101558.28
2019-05-23T18:28:15.313Z,101554.79
2019-05-23T18:30:55.634Z,101557.94
2019-05-23T18:33:25.318Z,101561.40
2019-05-23T18:35:56.219Z,101562.09
2019-05-23T18:38:26.327Z,101559.53
2019-05-23T18:41:03.253Z,101558.54
2019-05-23T18:43:26.967Z,101563.39
2019-05-23T18:45:59.998Z,101566.63
2019-05-23T18:48:29.642Z,101563.42
2019-05-23T18:50:59.103Z,101566.34
2019-05-23T18:53:29.784Z,101573.70
2019-05-23T18:55:59.078Z,101572.13
2019-05-23T18:58:28.582Z,101571.44
2019-05-23T19:01:08.557Z,101568.78
2019-05-23T19:03:37.921Z,101576.67
2019-05-23T19:06:07.186Z,101575.16
2019-05-23T19:08:37.402Z,101576.41
2019-05-23T19:11:20.058Z,101582.39
2019-05-23T19:13:38.075Z,101580.86
2019-05-23T19:16:07.657Z,101581.30
2019-05-23T19:18:37.169Z,101581.69
2019-05-23T19:21:07.506Z,101581.84
2019-05-23T19:23:37.826Z,101582.27
2019-05-23T19:26:07.232Z,101584.08
2019-05-23T19:28:36.795Z,101577.59
2019-05-23T19:31:06.679Z,101574.36
2019-05-23T19:33:36.259Z,101576.14
2019-05-23T19:36:06.311Z,101578.99
2019-05-23T19:38:36.179Z,101572.45
2019-05-23T19:41:05.970Z,101574.43
2019-05-23T19:43:35.682Z,101583.38
2019-05-23T19:46:05.355Z,101580.16
2019-05-23T19:48:34.823Z,101576.37
2019-05-23T19:51:04.450Z,101581.98
2019-05-23T19:53:34.389Z,101574.82
2019-05-23T19:56:03.862Z,101580.16
2019-05-23T19:58:33.115Z,101577.41
2019-05-23T20:01:03.183Z,101577.73
2019-05-23T20:03:32.943Z,101575.02
2019-05-23T20:06:03.069Z,101572.30
2019-05-23T20:08:32.572Z,101576.23
2019-05-23T20:11:01.940Z,101568.80
2019-05-23T20:13:31.229Z,101577.41
2019-05-23T20:16:00.756Z,101574.39
2019-05-23T20:18:30.346Z,101568.90
2019-05-23T20:21:00.699Z,101573.09
2019-05-23T20:23:30.500Z,101572.01
2019-05-23T20:25:59.941Z,101569.80
2019-05-23T20:28:29.654Z,101577.28
2019-05-23T20:31:00.232Z,101579.78
2019-05-23T20:33:30.057Z,101575.41
2019-05-23T20:36:00.331Z,101588.67
2019-05-23T20:38:30.011Z,101592.86
2019-05-23T20:40:59.501Z,101592.91
2019-05-23T20:43:28.859Z,101596.80
2019-05-23T20:48:22.570Z,101591.58
2019-05-23T20:50:51.913Z,101592.98
2019-05-23T20:53:21.336Z,101594.39
2019-05-23T20:55:50.889Z,101592.16
2019-05-23T20:58:20.338Z,101594.39
2019-05-23T21:01:11.540Z,101586.92
2019-05-23T21:03:40.866Z,101581.66
2019-05-23T21:06:10.732Z,101588.30
2019-05-23T21:08:40.519Z,101580.30
2019-05-23T21:11:09.829Z,101584.73
2019-05-23T21:13:39.220Z,101582.78
2019-05-23T21:16:09.376Z,101582.77
2019-05-23T21:18:38.694Z,101578.09
2019-05-23T21:21:08.061Z,101578.94
2019-05-23T21:23:37.916Z,101577.84
2019-05-23T21:26:07.353Z,101579.22
2019-05-23T21:28:37.157Z,101577.84
2019-05-23T21:31:12.126Z,101578.69
2019-05-23T21:33:41.447Z,101586.41
2019-05-23T21:36:10.716Z,101579.52
2019-05-23T21:38:40.488Z,101578.14
2019-05-23T21:41:09.876Z,101582.00
2019-05-23T21:43:39.180Z,101575.66
2019-05-23T21:46:08.803Z,101572.37
2019-05-23T21:48:38.129Z,101569.31
2019-05-23T21:51:07.794Z,101568.48
2019-05-23T21:53:37.400Z,101566.00
2019-05-23T21:56:07.074Z,101568.49
2019-05-23T21:58:36.811Z,101565.72
2019-05-23T22:01:31.796Z,101565.70
2019-05-23T22:04:23.220Z,101562.95
2019-05-23T22:06:57.913Z,101556.88
2019-05-23T22:09:27.467Z,101557.69
2019-05-23T22:11:57.685Z,101553.55
2019-05-23T22:14:27.407Z,101546.92
2019-05-23T22:16:57.055Z,101548.57
2019-05-23T22:19:27.351Z,101544.44
2019-05-23T22:21:56.965Z,101539.73
2019-05-23T22:24:26.268Z,101538.09
2019-05-23T22:26:55.701Z,101530.91
2019-05-23T22:29:25.779Z,101527.59
2019-05-23T22:31:56.594Z,101523.72
2019-05-23T22:34:32.998Z,101533.09
2019-05-23T22:37:02.903Z,101523.98
2019-05-23T22:39:32.386Z,101524.82
2019-05-23T22:42:01.972Z,101519.86
2019-05-23T22:44:31.486Z,101522.06
2019-05-23T22:47:00.828Z,101524.00
2019-05-23T22:49:31.032Z,101517.09
2019-05-23T22:52:00.348Z,101515.70
2019-05-23T22:54:29.853Z,101513.80
2019-05-23T22:56:59.565Z,101512.14
2019-05-23T22:59:29.083Z,101513.80
2019-05-23T23:01:58.363Z,101514.08
2019-05-23T23:04:28.227Z,101509.67
2019-05-23T23:06:57.721Z,101516.03
2019-05-23T23:09:27.234Z,101507.18
2019-05-23T23:11:56.999Z,101512.97
2019-05-23T23:14:26.314Z,101511.30
2019-05-23T23:16:55.665Z,101517.91
2019-05-23T23:19:25.031Z,101509.06
2019-05-23T23:21:54.360Z,101506.84
2019-05-23T23:24:23.648Z,101504.09
2019-05-23T23:26:53.343Z,101500.21
2019-05-23T23:29:22.709Z,101500.23
2019-05-23T23:31:52.079Z,101501.61
2019-05-23T23:34:21.744Z,101495.83
2019-05-23T23:36:51.033Z,101484.27
2019-05-23T23:39:20.410Z,101491.73
2019-05-23T23:41:50.149Z,101495.05
2019-05-23T23:44:20.470Z,101488.97
2019-05-23T23:47:07.977Z,101482.91
2019-05-23T23:49:54.859Z,101486.79
2019-05-23T23:52:42.202Z,101479.61
2019-05-23T23:55:29.246Z,101477.97
2019-05-23T23:58:00.605Z,101481.81
